createdAt,value
2019-01-05T00:00:00.620Z,21.70
2019-01-05T00:03:14.168Z,24.60
2019-01-05T00:06:05.077Z,15.23
2019-01-05T00:08:57.600Z,17.07
2019-01-05T00:12:05.840Z,12.57
2019-01-05T00:15:06.508Z,13.43
2019-01-05T00:17:58.794Z,13.93
2019-01-05T00:20:41.892Z,38.47
2019-01-05T00:23:34.025Z,14.07
2019-01-05T00:26:32.708Z,14.73
2019-01-05T00:29:31.838Z,33.53
2019-01-05T00:32:42.217Z,15.37
2019-01-05T00:35:35.842Z,21.53
2019-01-05T00:38:29.378Z,15.80
2019-01-05T00:41:34.547Z,16.87
2019-01-05T00:44:33.644Z,14.47
2019-01-05T00:47:25.844Z,12.00
2019-01-05T00:50:17.052Z,11.30
2019-01-05T00:53:13.024Z,10.33
2019-01-05T00:56:06.280Z,13.13
2019-01-05T00:59:05.157Z,14.70
2019-01-05T01:02:01.399Z,7.77
2019-01-05T01:04:57.723Z,10.20
2019-01-05T01:07:54.468Z,7.10
2019-01-05T01:10:41.527Z,8.37
2019-01-05T01:13:54.460Z,11.83
2019-01-05T01:16:52.056Z,9.97
2019-01-05T01:19:44.185Z,8.80
2019-01-05T01:22:37.588Z,10.23
2019-01-05T01:25:32.460Z,8.30
2019-01-05T01:28:32.364Z,9.27
2019-01-05T01:31:29.099Z,13.27
2019-01-05T01:34:20.336Z,7.27
2019-01-05T01:37:13.458Z,7.33
2019-01-05T01:40:08.568Z,7.23
2019-01-05T01:42:55.160Z,7.90
2019-01-05T01:45:49.260Z,11.10
2019-01-05T01:48:47.168Z,7.17
2019-01-05T01:51:42.812Z,8.53
2019-01-05T01:54:41.145Z,10.03
2019-01-05T01:57:36.042Z,6.20
2019-01-05T02:00:37.612Z,17.57
2019-01-05T02:03:44.022Z,17.97
2019-01-05T02:06:56.038Z,14.17
2019-01-05T02:10:04.375Z,30.50
2019-01-05T02:13:15.618Z,15.70
2019-01-05T02:16:14.956Z,11.47
2019-01-05T02:19:14.253Z,14.37
2019-01-05T02:22:35.872Z,9.53
2019-01-05T02:25:58.655Z,6.83
2019-01-05T02:29:16.122Z,6.87
2019-01-05T02:32:23.703Z,8.97
2019-01-05T02:35:28.352Z,12.47
2019-01-05T02:38:53.259Z,10.63
2019-01-05T02:42:19.803Z,8.07
2019-01-05T02:45:32.341Z,9.13
2019-01-05T02:48:39.220Z,7.97
2019-01-05T02:52:04.634Z,9.60
2019-01-05T02:55:20.396Z,10.00
2019-01-05T02:58:43.030Z,9.27
2019-01-05T03:02:00.768Z,15.20
2019-01-05T03:05:23.536Z,8.63
2019-01-05T03:08:32.146Z,7.03
2019-01-05T03:11:41.592Z,10.03
2019-01-05T03:14:50.258Z,8.73
2019-01-05T03:18:11.634Z,7.67
2019-01-05T03:21:25.970Z,6.93
2019-01-05T03:24:37.673Z,8.33
2019-01-05T03:27:53.351Z,7.73
2019-01-05T03:31:19.580Z,9.10
2019-01-05T03:34:27.000Z,7.37
2019-01-05T03:37:34.789Z,8.60
2019-01-05T03:40:56.514Z,9.00
2019-01-05T03:43:55.620Z,6.87
2019-01-05T03:47:17.547Z,7.80
2019-01-05T03:50:25.167Z,6.27
2019-01-05T03:53:43.118Z,9.90
2019-01-05T03:57:00.306Z,10.00
2019-01-05T04:00:18.150Z,14.73
2019-01-05T04:03:35.776Z,9.63
2019-01-05T04:06:41.314Z,6.97
2019-01-05T04:09:53.602Z,10.00
2019-01-05T04:13:09.852Z,17.80
2019-01-05T04:16:38.323Z,7.53
2019-01-05T04:20:05.546Z,7.60
2019-01-05T04:23:14.187Z,9.03
2019-01-05T04:26:35.284Z,8.97
2019-01-05T04:29:47.194Z,9.87
2019-01-05T04:32:50.088Z,9.17
2019-01-05T04:36:36.679Z,24.73
2019-01-05T04:40:14.359Z,11.43
2019-01-05T04:43:37.534Z,5.60
2019-01-05T04:46:55.670Z,16.33
2019-01-05T04:50:04.610Z,17.07
2019-01-05T04:53:22.852Z,25.17
2019-01-05T04:56:31.571Z,15.77
2019-01-05T04:59:51.301Z,14.37
2019-01-05T05:02:55.407Z,19.77
2019-01-05T05:06:13.410Z,30.43
2019-01-05T05:09:31.139Z,16.03
2019-01-05T05:12:35.983Z,16.60
2019-01-05T05:16:16.758Z,38.10
2019-01-05T05:19:23.554Z,16.10
2019-01-05T05:22:48.011Z,19.00
2019-01-05T05:26:08.967Z,14.73
2019-01-05T05:29:09.658Z,18.60
2019-01-05T05:32:30.971Z,20.20
2019-01-05T05:35:53.834Z,22.43
2019-01-05T05:39:07.920Z,18.40
2019-01-05T05:42:25.196Z,16.87
2019-01-05T05:45:51.150Z,25.50
2019-01-05T05:49:11.830Z,23.47
2019-01-05T05:52:19.389Z,16.53
2019-01-05T05:55:26.543Z,22.00
2019-01-05T05:58:26.692Z,17.63
2019-01-05T06:01:47.992Z,21.53
2019-01-05T06:05:17.048Z,22.47
2019-01-05T06:08:38.389Z,26.80
2019-01-05T06:11:49.685Z,30.93
2019-01-05T06:15:07.488Z,24.47
2019-01-05T06:18:27.598Z,22.10
2019-01-05T06:21:34.436Z,32.13
2019-01-05T06:25:01.019Z,22.10
2019-01-05T06:28:23.963Z,25.33
2019-01-05T06:31:44.975Z,23.57
2019-01-05T06:35:19.351Z,51.23
2019-01-05T06:38:36.011Z,27.23
2019-01-05T06:42:08.262Z,31.40
2019-01-05T06:45:13.011Z,25.23
2019-01-05T06:48:28.454Z,29.77
2019-01-05T06:51:48.194Z,28.73
2019-01-05T06:54:57.177Z,30.70
2019-01-05T06:57:56.329Z,21.30
2019-01-05T07:01:24.764Z,39.53
2019-01-05T07:04:43.507Z,32.20
2019-01-05T07:08:06.940Z,42.30
2019-01-05T07:11:07.151Z,31.03
2019-01-05T07:14:42.064Z,22.60
2019-01-05T07:17:49.330Z,16.67
2019-01-05T07:21:27.458Z,22.27
2019-01-05T07:24:45.622Z,19.33
2019-01-05T07:28:02.482Z,19.50
2019-01-05T07:31:17.285Z,30.20
2019-01-05T07:34:26.252Z,41.20
2019-01-05T07:37:35.339Z,35.53
2019-01-05T07:40:39.562Z,33.63
2019-01-05T07:44:01.253Z,31.83
2019-01-05T07:47:18.895Z,37.03
2019-01-05T07:50:27.664Z,44.57
2019-01-05T07:53:43.561Z,36.17
2019-01-05T07:56:52.552Z,30.27
2019-01-05T08:00:27.443Z,28.77
2019-01-05T08:03:35.058Z,30.00
2019-01-05T08:06:51.483Z,31.77
2019-01-05T08:10:08.418Z,29.03
2019-01-05T08:13:32.486Z,26.87
2019-01-05T08:16:51.036Z,23.10
2019-01-05T08:20:18.716Z,22.53
2019-01-05T08:23:22.100Z,22.77
2019-01-05T08:26:44.049Z,25.40
2019-01-05T08:30:13.024Z,38.53
2019-01-05T08:33:31.484Z,30.87
2019-01-05T08:36:38.705Z,31.63
2019-01-05T08:40:15.126Z,38.07
2019-01-05T08:43:22.422Z,23.43
2019-01-05T08:46:25.884Z,23.73
2019-01-05T08:49:49.900Z,22.53
2019-01-05T08:53:15.582Z,16.60
2019-01-05T08:56:27.438Z,12.87
2019-01-05T08:59:50.180Z,14.77
2019-01-05T09:03:15.397Z,22.23
2019-01-05T09:06:25.189Z,16.77
2019-01-05T09:10:00.576Z,19.17
2019-01-05T09:13:08.007Z,20.77
2019-01-05T09:16:22.834Z,41.13
2019-01-05T09:19:49.438Z,32.93
2019-01-05T09:23:08.368Z,39.10
2019-01-05T09:26:24.020Z,44.73
2019-01-05T09:29:38.134Z,45.57
2019-01-05T09:32:57.141Z,46.50
2019-01-05T09:36:08.748Z,43.90
2019-01-05T09:39:23.620Z,52.20
2019-01-05T09:42:29.111Z,46.87
2019-01-05T09:45:44.130Z,51.13
2019-01-05T09:49:04.381Z,33.47
2019-01-05T09:52:11.922Z,37.07
2019-01-05T09:55:40.734Z,27.03
2019-01-05T09:58:55.484Z,28.27
2019-01-05T10:02:27.616Z,29.67
2019-01-05T10:05:47.282Z,26.57
2019-01-05T10:08:55.691Z,25.10
2019-01-05T10:12:15.418Z,25.80
2019-01-05T10:15:33.320Z,25.87
2019-01-05T10:18:49.960Z,26.77
2019-01-05T10:22:11.097Z,21.80
2019-01-05T10:25:35.518Z,19.87
2019-01-05T10:28:58.349Z,17.73
2019-01-05T10:32:04.594Z,25.37
2019-01-05T10:35:29.460Z,24.17
2019-01-05T10:38:29.146Z,17.70
2019-01-05T10:41:32.498Z,18.43
2019-01-05T10:44:34.335Z,14.10
2019-01-05T10:47:40.470Z,16.83
2019-01-05T10:51:04.283Z,18.17
2019-01-05T10:54:19.969Z,16.53
2019-01-05T10:57:32.866Z,15.37
2019-01-05T11:00:33.300Z,15.07
2019-01-05T11:03:40.602Z,16.33
2019-01-05T11:06:59.138Z,11.93
2019-01-05T11:10:21.950Z,14.23
2019-01-05T11:13:36.960Z,14.77
2019-01-05T11:16:49.481Z,11.50
2019-01-05T11:20:00.173Z,15.60
2019-01-05T11:23:07.853Z,13.47
2019-01-05T11:26:42.163Z,15.97
2019-01-05T11:30:03.583Z,8.43
2019-01-05T11:33:38.169Z,12.20
2019-01-05T11:36:54.014Z,14.37
2019-01-05T11:40:09.993Z,21.87
2019-01-05T11:43:17.425Z,28.20
2019-01-05T11:46:32.516Z,22.33
2019-01-05T11:49:56.376Z,14.77
2019-01-05T11:53:05.656Z,16.20
2019-01-05T11:56:22.097Z,10.67
2019-01-05T11:59:49.720Z,17.63
2019-01-05T12:03:03.201Z,13.67
2019-01-05T12:06:19.522Z,23.77
2019-01-05T12:09:40.681Z,12.23
2019-01-05T12:12:47.544Z,14.50
2019-01-05T12:16:07.504Z,11.40
2019-01-05T12:19:27.366Z,9.90
2019-01-05T12:22:34.970Z,12.17
2019-01-05T12:26:10.476Z,14.20
2019-01-05T12:29:43.211Z,15.27
2019-01-05T12:33:17.020Z,15.55
2019-01-05T12:36:43.138Z,14.93
2019-01-05T12:39:54.723Z,13.03
2019-01-05T12:43:20.260Z,18.80
2019-01-05T12:46:39.829Z,24.77
2019-01-05T12:49:45.848Z,18.43
2019-01-05T12:53:09.840Z,17.47
2019-01-05T12:56:21.060Z,19.93
2019-01-05T12:59:32.600Z,17.53
2019-01-05T13:02:51.588Z,13.03
2019-01-05T13:05:55.262Z,11.93
2019-01-05T13:09:07.776Z,17.37
2019-01-05T13:12:26.337Z,15.63
2019-01-05T13:15:55.265Z,14.50
2019-01-05T13:19:08.792Z,18.07
2019-01-05T13:22:53.325Z,17.70
2019-01-05T13:26:31.808Z,9.87
2019-01-05T13:30:09.680Z,11.60
2019-01-05T13:33:18.350Z,18.53
2019-01-05T13:36:44.486Z,16.00
2019-01-05T13:40:14.913Z,13.80
2019-01-05T13:43:25.067Z,13.50
2019-01-05T13:47:00.900Z,20.43
2019-01-05T13:50:17.775Z,11.37
2019-01-05T13:53:26.382Z,12.97
2019-01-05T13:56:12.200Z,16.47
2019-01-05T13:59:07.798Z,14.10
2019-01-05T14:02:19.171Z,13.20
2019-01-05T14:05:09.962Z,16.63
2019-01-05T14:08:03.304Z,14.73
2019-01-05T14:10:54.028Z,33.50
2019-01-05T14:13:45.482Z,12.60
2019-01-05T14:16:45.314Z,14.87
2019-01-05T14:19:37.805Z,13.67
2019-01-05T14:22:31.950Z,19.80
2019-01-05T14:25:33.082Z,15.23
2019-01-05T14:28:33.968Z,14.33
2019-01-05T14:31:26.071Z,15.20
2019-01-05T14:34:18.914Z,14.93
2019-01-05T14:37:11.695Z,14.97
2019-01-05T14:40:02.813Z,16.83
2019-01-05T14:42:54.711Z,17.57
2019-01-05T14:45:46.962Z,17.07
2019-01-05T14:48:39.072Z,13.83
2019-01-05T14:51:47.911Z,14.47
2019-01-05T14:54:39.493Z,16.37
2019-01-05T14:57:30.602Z,21.70
2019-01-05T15:00:29.938Z,20.77
2019-01-05T15:03:21.772Z,17.10
2019-01-05T15:06:34.717Z,15.70
2019-01-05T15:09:44.697Z,24.43
2019-01-05T15:12:36.870Z,23.20
2019-01-05T15:15:39.146Z,17.83
2019-01-05T15:18:32.101Z,20.87
2019-01-05T15:21:38.973Z,30.13
2019-01-05T15:24:40.788Z,29.47
2019-01-05T15:27:42.673Z,28.67
2019-01-05T15:30:33.816Z,33.00
2019-01-05T15:33:39.556Z,30.60
2019-01-05T15:36:35.816Z,32.27
2019-01-05T15:39:38.460Z,27.90
2019-01-05T15:42:33.630Z,26.63
2019-01-05T15:45:32.944Z,24.63
2019-01-05T15:48:29.738Z,34.17
2019-01-05T15:51:19.621Z,23.27
2019-01-05T15:54:10.836Z,27.80
2019-01-05T15:57:03.044Z,22.53
2019-01-05T16:00:11.566Z,25.33
2019-01-05T16:03:11.223Z,32.10
2019-01-05T16:06:14.066Z,30.70
2019-01-05T16:09:05.526Z,31.27
2019-01-05T16:12:12.270Z,31.07
2019-01-05T16:15:08.159Z,33.73
2019-01-05T16:18:01.241Z,29.57
2019-01-05T16:20:57.113Z,32.73
2019-01-05T16:23:49.319Z,44.53
2019-01-05T16:26:40.910Z,33.10
2019-01-05T16:29:45.406Z,41.03
2019-01-05T16:32:37.127Z,33.43
2019-01-05T16:35:36.739Z,36.80
2019-01-05T16:38:27.675Z,41.37
2019-01-05T16:41:20.095Z,43.60
2019-01-05T16:44:13.157Z,35.33
2019-01-05T16:47:22.003Z,50.43
2019-01-05T16:50:15.427Z,45.73
2019-01-05T16:53:12.547Z,37.77
2019-01-05T16:56:03.924Z,42.83
2019-01-05T16:58:56.884Z,49.87
2019-01-05T17:01:47.588Z,45.00
2019-01-05T17:04:53.848Z,49.77
2019-01-05T17:07:45.271Z,46.73
2019-01-05T17:10:37.496Z,63.97
2019-01-05T17:13:28.897Z,66.87
2019-01-05T17:16:25.659Z,82.67
2019-01-05T17:19:27.528Z,64.23
2019-01-05T17:22:21.925Z,67.03
2019-01-05T17:25:13.349Z,75.30
2019-01-05T17:28:05.211Z,73.03
2019-01-05T17:30:57.718Z,65.67
2019-01-05T17:33:48.819Z,73.17
2019-01-05T17:37:02.023Z,75.80
2019-01-05T17:39:54.782Z,78.97
2019-01-05T17:42:47.933Z,70.27
2019-01-05T17:45:50.355Z,73.40
2019-01-05T17:49:00.143Z,67.57
2019-01-05T17:52:05.544Z,66.33
2019-01-05T17:55:19.170Z,84.77
2019-01-05T17:58:11.605Z,65.77
2019-01-05T18:01:19.119Z,75.80
2019-01-05T18:04:27.789Z,73.93
2019-01-05T18:07:19.303Z,71.30
2019-01-05T18:10:27.235Z,71.73
2019-01-05T18:13:18.632Z,82.37
2019-01-05T18:16:10.687Z,78.37
2019-01-05T18:18:59.840Z,98.90
2019-01-05T18:22:13.965Z,88.30
2019-01-05T18:25:05.596Z,87.87
2019-01-05T18:28:13.083Z,98.27
2019-01-05T18:31:04.034Z,90.53
2019-01-05T18:34:07.065Z,84.23
2019-01-05T18:36:59.710Z,94.47
2019-01-05T18:39:52.046Z,88.80
2019-01-05T18:42:55.456Z,81.47
2019-01-05T18:46:07.156Z,88.87
2019-01-05T18:49:03.058Z,76.17
2019-01-05T18:52:24.830Z,72.00
2019-01-05T18:55:15.706Z,64.67
2019-01-05T18:58:08.692Z,81.77
2019-01-05T19:01:05.347Z,89.67
2019-01-05T19:03:57.776Z,86.17
2019-01-05T19:06:51.199Z,78.20
2019-01-05T19:09:47.721Z,77.43
2019-01-05T19:12:38.620Z,62.77
2019-01-05T19:15:40.619Z,65.93
2019-01-05T19:18:32.051Z,55.13
2019-01-05T19:21:25.701Z,54.53
2019-01-05T19:24:16.932Z,74.70
2019-01-05T19:27:28.977Z,65.20
2019-01-05T19:30:27.900Z,48.47
2019-01-05T19:33:19.540Z,63.90
2019-01-05T19:36:09.742Z,50.13
2019-01-05T19:39:09.344Z,61.00
2019-01-05T19:42:03.168Z,52.30
2019-01-05T19:45:09.048Z,53.40
2019-01-05T19:48:21.526Z,48.40
2019-01-05T19:51:21.448Z,43.43
2019-01-05T19:54:19.620Z,49.40
2019-01-05T19:57:31.116Z,46.30
2019-01-05T20:00:31.672Z,43.00
2019-01-05T20:03:24.031Z,42.17
2019-01-05T20:06:17.284Z,45.73
2019-01-05T20:09:11.438Z,46.97
2019-01-05T20:12:06.851Z,42.50
2019-01-05T20:14:58.290Z,35.87
2019-01-05T20:17:49.374Z,36.40
2019-01-05T20:20:47.291Z,39.50
2019-01-05T20:23:41.381Z,38.40
2019-01-05T20:26:46.457Z,51.07
2019-01-05T20:29:58.672Z,42.57
2019-01-05T20:32:50.994Z,47.03
2019-01-05T20:35:53.740Z,32.93
2019-01-05T20:38:49.669Z,43.20
2019-01-05T20:41:57.441Z,53.67
2019-01-05T20:44:51.504Z,51.90
2019-01-05T20:47:59.210Z,41.40
2019-01-05T20:50:52.494Z,53.23
2019-01-05T20:53:51.434Z,41.63
2019-01-05T20:57:00.518Z,49.80
2019-01-05T21:00:09.876Z,32.47
2019-01-05T21:02:52.888Z,31.03
2019-01-05T21:05:48.114Z,35.90
2019-01-05T21:08:50.380Z,36.37
2019-01-05T21:11:43.464Z,34.00
2019-01-05T21:14:34.864Z,36.20
2019-01-05T21:17:41.482Z,42.17
2019-01-05T21:20:49.020Z,46.73
2019-01-05T21:23:41.696Z,30.47
2019-01-05T21:26:33.522Z,32.80
2019-01-05T21:29:32.929Z,37.33
2019-01-05T21:32:22.498Z,25.93
2019-01-05T21:35:15.546Z,30.73
2019-01-05T21:38:07.940Z,34.60
2019-01-05T21:41:04.222Z,47.87
2019-01-05T21:43:56.266Z,35.23
2019-01-05T21:46:47.342Z,34.80
2019-01-05T21:49:39.166Z,34.50
2019-01-05T21:52:44.117Z,42.13
2019-01-05T21:55:42.998Z,31.43
2019-01-05T21:58:38.436Z,43.20
2019-01-05T22:01:26.892Z,40.13
2019-01-05T22:04:23.385Z,33.17
2019-01-05T22:07:27.966Z,28.77
2019-01-05T22:10:19.148Z,31.70
2019-01-05T22:13:10.138Z,30.13
2019-01-05T22:16:18.789Z,37.37
2019-01-05T22:19:16.980Z,35.80
2019-01-05T22:22:11.328Z,37.30
2019-01-05T22:25:03.422Z,38.03
2019-01-05T22:27:54.766Z,35.70
2019-01-05T22:30:46.080Z,42.13
2019-01-05T22:33:51.482Z,36.43
2019-01-05T22:36:48.379Z,34.70
2019-01-05T22:39:42.088Z,37.67
2019-01-05T22:42:44.113Z,54.83
2019-01-05T22:45:36.756Z,42.27
2019-01-05T22:48:28.863Z,50.37
2019-01-05T22:51:12.363Z,41.83
2019-01-05T22:54:04.192Z,53.00
2019-01-05T22:57:06.424Z,53.50
2019-01-05T23:00:02.714Z,48.60
2019-01-05T23:03:14.954Z,51.43
2019-01-05T23:06:09.863Z,57.50
2019-01-05T23:09:01.426Z,53.53
2019-01-05T23:12:02.852Z,54.03
2019-01-05T23:15:05.343Z,42.00
2019-01-05T23:17:58.852Z,54.73
2019-01-05T23:20:54.920Z,34.53
2019-01-05T23:23:46.922Z,38.83
2019-01-05T23:26:48.771Z,45.53
2019-01-05T23:29:54.344Z,37.50
2019-01-05T23:32:45.032Z,29.07
2019-01-05T23:35:57.244Z,29.57
2019-01-05T23:38:50.457Z,41.37
2019-01-05T23:41:48.196Z,33.33
2019-01-05T23:44:58.048Z,36.90
2019-01-05T23:47:51.141Z,33.93
2019-01-05T23:50:41.750Z,32.60
2019-01-05T23:53:33.692Z,29.27
2019-01-05T23:56:30.425Z,25.40
2019-01-05T23:59:21.646Z,26.53
